THY1216 LTBJ-LTAC
Flight info
| Callsign | THY1216 |
|---|---|
| Flight time | 0h 52m |
| Altitude | 37000 |
| Route | DCT KULAR UT54 HALIL HALIL1R |
| Aircraft | B738/M-SDE3/L |
Departure
| Time | 2026-04-29 16:58 |
|---|---|
| Airport | Adnan Menderes International Airport (LTBJ) |
Arrival
| Time | 2026-04-29 17:51 |
|---|---|
| Airport | Esenboğa International Airport (LTAC) |
| Time | Latitude | Longitude | Altitude | Speed | Heading |
|---|---|---|---|---|---|
| 2026-04-29 16:49 | 38.27880 | 27.15575 | 381 ft | 0 kts | 347° |
| 2026-04-29 16:51 | 38.27885 | 27.15574 | 381 ft | 4 kts | 347° |
| 2026-04-29 16:51 | 38.27888 | 27.15611 | 381 ft | 7 kts | 117° |
| 2026-04-29 16:51 | 38.27868 | 27.15632 | 380 ft | 2 kts | 150° |
| 2026-04-29 16:52 | 38.27844 | 27.15649 | 379 ft | 5 kts | 152° |
| 2026-04-29 16:52 | 38.27794 | 27.15664 | 377 ft | 9 kts | 167° |
| 2026-04-29 16:52 | 38.27757 | 27.15729 | 376 ft | 10 kts | 82° |
| 2026-04-29 16:52 | 38.27775 | 27.15824 | 375 ft | 12 kts | 76° |
| 2026-04-29 16:53 | 38.27795 | 27.15929 | 375 ft | 12 kts | 76° |
| 2026-04-29 16:53 | 38.27814 | 27.16032 | 376 ft | 11 kts | 77° |
| 2026-04-29 16:53 | 38.27824 | 27.16088 | 377 ft | 0 kts | 77° |
| 2026-04-29 16:56 | 38.27828 | 27.16104 | 378 ft | 11 kts | 76° |
| 2026-04-29 16:56 | 38.27841 | 27.16170 | 379 ft | 0 kts | 75° |
| 2026-04-29 16:56 | 38.27843 | 27.16183 | 380 ft | 4 kts | 78° |
| 2026-04-29 16:57 | 38.27849 | 27.16217 | 380 ft | 3 kts | 77° |
| 2026-04-29 16:57 | 38.27869 | 27.16237 | 381 ft | 3 kts | 295° |
| 2026-04-29 16:57 | 38.27843 | 27.16190 | 380 ft | 8 kts | 263° |
| 2026-04-29 16:57 | 38.27853 | 27.16119 | 379 ft | 8 kts | 324° |
| 2026-04-29 16:58 | 38.27914 | 27.16095 | 381 ft | 17 kts | 343° |
| 2026-04-29 16:58 | 38.28336 | 27.15961 | 395 ft | 117 kts | 347° |
| 2026-04-29 16:58 | 38.29458 | 27.15620 | 624 ft | 198 kts | 345° |
| 2026-04-29 16:58 | 38.30746 | 27.15149 | 2009 ft | 205 kts | 346° |
| 2026-04-29 16:59 | 38.32164 | 27.15249 | 3006 ft | 217 kts | 23° |
| 2026-04-29 16:59 | 38.33271 | 27.16572 | 3906 ft | 234 kts | 64° |
| 2026-04-29 16:59 | 38.33516 | 27.18621 | 4836 ft | 249 kts | 99° |
| 2026-04-29 16:59 | 38.32829 | 27.20668 | 5758 ft | 265 kts | 126° |
| 2026-04-29 17:00 | 38.31704 | 27.22528 | 6849 ft | 274 kts | 123° |
| 2026-04-29 17:00 | 38.31112 | 27.24808 | 8019 ft | 281 kts | 92° |
| 2026-04-29 17:00 | 38.31479 | 27.27219 | 9171 ft | 286 kts | 69° |
| 2026-04-29 17:00 | 38.32255 | 27.29546 | 10288 ft | 292 kts | 67° |
| 2026-04-29 17:01 | 38.33012 | 27.32028 | 11127 ft | 308 kts | 71° |
| 2026-04-29 17:01 | 38.33652 | 27.34663 | 11865 ft | 326 kts | 75° |
| 2026-04-29 17:01 | 38.34240 | 27.37520 | 12577 ft | 344 kts | 76° |
| 2026-04-29 17:01 | 38.34821 | 27.40546 | 13266 ft | 361 kts | 76° |
| 2026-04-29 17:02 | 38.35415 | 27.43676 | 14186 ft | 370 kts | 76° |
| 2026-04-29 17:02 | 38.36025 | 27.46869 | 15181 ft | 376 kts | 76° |
| 2026-04-29 17:02 | 38.36644 | 27.50076 | 16148 ft | 382 kts | 76° |
| 2026-04-29 17:02 | 38.37286 | 27.53377 | 17098 ft | 387 kts | 76° |
| 2026-04-29 17:03 | 38.37935 | 27.56706 | 18017 ft | 393 kts | 76° |
| 2026-04-29 17:03 | 38.38589 | 27.60057 | 18904 ft | 398 kts | 76° |
| 2026-04-29 17:03 | 38.39265 | 27.63522 | 19776 ft | 403 kts | 76° |
| 2026-04-29 17:03 | 38.39939 | 27.66978 | 20606 ft | 408 kts | 76° |
| 2026-04-29 17:04 | 38.40627 | 27.70515 | 21418 ft | 413 kts | 76° |
| 2026-04-29 17:04 | 38.41314 | 27.74056 | 22190 ft | 418 kts | 76° |
| 2026-04-29 17:04 | 38.42014 | 27.77667 | 22949 ft | 423 kts | 76° |
| 2026-04-29 17:04 | 38.42719 | 27.81313 | 23678 ft | 428 kts | 76° |
| 2026-04-29 17:05 | 38.43430 | 27.84997 | 24381 ft | 432 kts | 76° |
| 2026-04-29 17:05 | 38.44150 | 27.88734 | 25072 ft | 437 kts | 76° |
| 2026-04-29 17:05 | 38.44868 | 27.92469 | 25728 ft | 441 kts | 76° |
| 2026-04-29 17:05 | 38.45598 | 27.96273 | 26376 ft | 445 kts | 76° |
| 2026-04-29 17:06 | 38.46332 | 28.00103 | 27005 ft | 449 kts | 76° |
| 2026-04-29 17:06 | 38.47073 | 28.03981 | 27606 ft | 454 kts | 76° |
| 2026-04-29 17:06 | 38.47826 | 28.07925 | 28191 ft | 458 kts | 76° |
| 2026-04-29 17:06 | 38.48576 | 28.11867 | 28756 ft | 462 kts | 76° |
| 2026-04-29 17:07 | 38.49336 | 28.15864 | 29306 ft | 467 kts | 76° |
| 2026-04-29 17:07 | 38.50093 | 28.19856 | 30084 ft | 464 kts | 76° |
| 2026-04-29 17:07 | 38.50841 | 28.23808 | 30853 ft | 462 kts | 76° |
| 2026-04-29 17:07 | 38.51586 | 28.27757 | 31561 ft | 461 kts | 76° |
| 2026-04-29 17:08 | 38.52337 | 28.31738 | 32248 ft | 459 kts | 76° |
| 2026-04-29 17:08 | 38.53082 | 28.35703 | 32916 ft | 458 kts | 76° |
| 2026-04-29 17:08 | 38.53827 | 28.39666 | 33565 ft | 456 kts | 76° |
| 2026-04-29 17:08 | 38.54552 | 28.43536 | 34175 ft | 455 kts | 76° |
| 2026-04-29 17:09 | 38.55286 | 28.47461 | 34781 ft | 454 kts | 76° |
| 2026-04-29 17:09 | 38.56021 | 28.51396 | 35371 ft | 453 kts | 76° |
| 2026-04-29 17:09 | 38.56736 | 28.55235 | 35916 ft | 452 kts | 76° |
| 2026-04-29 17:09 | 38.57468 | 28.59176 | 36435 ft | 451 kts | 76° |
| 2026-04-29 17:10 | 38.58186 | 28.63066 | 36888 ft | 452 kts | 77° |
| 2026-04-29 17:10 | 38.58780 | 28.66963 | 36993 ft | 456 kts | 80° |
| 2026-04-29 17:10 | 38.59643 | 28.74975 | 37000 ft | 451 kts | 83° |
| 2026-04-29 17:11 | 38.60365 | 28.82928 | 37000 ft | 452 kts | 83° |
| 2026-04-29 17:11 | 38.61104 | 28.90926 | 37000 ft | 452 kts | 83° |
| 2026-04-29 17:12 | 38.61863 | 28.98853 | 37000 ft | 452 kts | 83° |
| 2026-04-29 17:12 | 38.62512 | 29.05518 | 37000 ft | 452 kts | 83° |
| 2026-04-29 17:13 | 38.63420 | 29.14763 | 37000 ft | 452 kts | 83° |
| 2026-04-29 17:13 | 38.64203 | 29.22735 | 37000 ft | 452 kts | 83° |
| 2026-04-29 17:14 | 38.64979 | 29.30678 | 37000 ft | 452 kts | 83° |
| 2026-04-29 17:14 | 38.65752 | 29.38643 | 37000 ft | 452 kts | 82° |
| 2026-04-29 17:15 | 38.66518 | 29.46595 | 37000 ft | 452 kts | 82° |
| 2026-04-29 17:15 | 38.67412 | 29.54560 | 37000 ft | 452 kts | 80° |
| 2026-04-29 17:16 | 38.68450 | 29.62513 | 37000 ft | 452 kts | 80° |
| 2026-04-29 17:16 | 38.69485 | 29.70375 | 37000 ft | 452 kts | 80° |
| 2026-04-29 17:17 | 38.70515 | 29.78340 | 37000 ft | 452 kts | 81° |
| 2026-04-29 17:17 | 38.71516 | 29.86244 | 36990 ft | 452 kts | 81° |
| 2026-04-29 17:18 | 38.72504 | 29.94160 | 36999 ft | 452 kts | 81° |
| 2026-04-29 17:18 | 38.73488 | 30.02055 | 36999 ft | 452 kts | 80° |
| 2026-04-29 17:19 | 38.74528 | 30.09983 | 36999 ft | 452 kts | 79° |
| 2026-04-29 17:19 | 38.75594 | 30.17922 | 37000 ft | 452 kts | 80° |
| 2026-04-29 17:20 | 38.76645 | 30.25837 | 37000 ft | 452 kts | 80° |
| 2026-04-29 17:20 | 38.77686 | 30.33758 | 37000 ft | 452 kts | 80° |
| 2026-04-29 17:21 | 38.78724 | 30.41710 | 37000 ft | 452 kts | 80° |
| 2026-04-29 17:21 | 38.79764 | 30.49636 | 36999 ft | 452 kts | 79° |
| 2026-04-29 17:22 | 38.81334 | 30.57430 | 37000 ft | 452 kts | 70° |
| 2026-04-29 17:22 | 38.83641 | 30.64920 | 37000 ft | 452 kts | 66° |
| 2026-04-29 17:23 | 38.86158 | 30.72299 | 37000 ft | 452 kts | 66° |
| 2026-04-29 17:23 | 38.88661 | 30.79626 | 37000 ft | 451 kts | 66° |
| 2026-04-29 17:24 | 38.91163 | 30.87054 | 37000 ft | 451 kts | 66° |
| 2026-04-29 17:24 | 38.93619 | 30.94432 | 37000 ft | 451 kts | 67° |
| 2026-04-29 17:25 | 38.96056 | 31.01804 | 37000 ft | 452 kts | 67° |
| 2026-04-29 17:25 | 38.98505 | 31.09251 | 37000 ft | 452 kts | 67° |
| 2026-04-29 17:26 | 39.00945 | 31.16698 | 37000 ft | 452 kts | 67° |
| 2026-04-29 17:26 | 39.03364 | 31.24098 | 37000 ft | 451 kts | 67° |
| 2026-04-29 17:27 | 39.05795 | 31.31559 | 37000 ft | 451 kts | 67° |
| 2026-04-29 17:27 | 39.08210 | 31.38989 | 37000 ft | 452 kts | 67° |
| 2026-04-29 17:28 | 39.10622 | 31.46438 | 37000 ft | 452 kts | 67° |
| 2026-04-29 17:28 | 39.13014 | 31.53847 | 37000 ft | 451 kts | 67° |
| 2026-04-29 17:29 | 39.15405 | 31.61271 | 36960 ft | 448 kts | 67° |
| 2026-04-29 17:29 | 39.16608 | 31.65004 | 36785 ft | 445 kts | 67° |
| 2026-04-29 17:29 | 39.17777 | 31.68634 | 36525 ft | 443 kts | 68° |
| 2026-04-29 17:30 | 39.18953 | 31.72293 | 36268 ft | 439 kts | 68° |
| 2026-04-29 17:30 | 39.20105 | 31.75881 | 35991 ft | 436 kts | 67° |
| 2026-04-29 17:30 | 39.21267 | 31.79507 | 35724 ft | 437 kts | 67° |
| 2026-04-29 17:30 | 39.22415 | 31.83094 | 35466 ft | 439 kts | 67° |
| 2026-04-29 17:31 | 39.23580 | 31.86747 | 35204 ft | 441 kts | 67° |
| 2026-04-29 17:31 | 39.24748 | 31.90413 | 34939 ft | 442 kts | 67° |
| 2026-04-29 17:31 | 39.25905 | 31.94053 | 34659 ft | 442 kts | 67° |
| 2026-04-29 17:31 | 39.27071 | 31.97722 | 34129 ft | 442 kts | 68° |
| 2026-04-29 17:32 | 39.28236 | 32.01397 | 33417 ft | 442 kts | 68° |
| 2026-04-29 17:32 | 39.29387 | 32.05030 | 32647 ft | 443 kts | 68° |
| 2026-04-29 17:32 | 39.30556 | 32.08724 | 31871 ft | 444 kts | 67° |
| 2026-04-29 17:32 | 39.31720 | 32.12407 | 31244 ft | 440 kts | 67° |
| 2026-04-29 17:33 | 39.32850 | 32.15988 | 30781 ft | 433 kts | 67° |
| 2026-04-29 17:33 | 39.33985 | 32.19590 | 30389 ft | 425 kts | 67° |
| 2026-04-29 17:33 | 39.35080 | 32.23074 | 29861 ft | 421 kts | 67° |
| 2026-04-29 17:33 | 39.36169 | 32.26539 | 29257 ft | 420 kts | 67° |
| 2026-04-29 17:34 | 39.37284 | 32.29996 | 28660 ft | 417 kts | 65° |
| 2026-04-29 17:34 | 39.38603 | 32.33319 | 28198 ft | 410 kts | 58° |
| 2026-04-29 17:34 | 39.40306 | 32.36219 | 27704 ft | 405 kts | 46° |
| 2026-04-29 17:34 | 39.42394 | 32.38628 | 27109 ft | 403 kts | 37° |
| 2026-04-29 17:35 | 39.46162 | 32.42064 | 26348 ft | 395 kts | 32° |
| 2026-04-29 17:35 | 39.49206 | 32.44635 | 25613 ft | 393 kts | 32° |
| 2026-04-29 17:35 | 39.51476 | 32.46531 | 25084 ft | 390 kts | 32° |
| 2026-04-29 17:36 | 39.53750 | 32.48439 | 24612 ft | 385 kts | 32° |
| 2026-04-29 17:36 | 39.55966 | 32.50313 | 24071 ft | 384 kts | 32° |
| 2026-04-29 17:36 | 39.58193 | 32.52208 | 23596 ft | 380 kts | 32° |
| 2026-04-29 17:36 | 39.60386 | 32.54080 | 23038 ft | 378 kts | 32° |
| 2026-04-29 17:37 | 39.62568 | 32.55949 | 22495 ft | 375 kts | 32° |
| 2026-04-29 17:37 | 39.64724 | 32.57801 | 22055 ft | 370 kts | 32° |
| 2026-04-29 17:37 | 39.66879 | 32.59655 | 21515 ft | 369 kts | 33° |
| 2026-04-29 17:37 | 39.68982 | 32.61468 | 20992 ft | 366 kts | 33° |
| 2026-04-29 17:38 | 39.71107 | 32.63303 | 20574 ft | 362 kts | 33° |
| 2026-04-29 17:38 | 39.73189 | 32.65103 | 20069 ft | 362 kts | 33° |
| 2026-04-29 17:38 | 39.75267 | 32.66902 | 19496 ft | 360 kts | 33° |
| 2026-04-29 17:38 | 39.77343 | 32.68701 | 19025 ft | 356 kts | 33° |
| 2026-04-29 17:39 | 39.79372 | 32.70459 | 18615 ft | 351 kts | 33° |
| 2026-04-29 17:39 | 39.81393 | 32.72211 | 18076 ft | 351 kts | 33° |
| 2026-04-29 17:39 | 39.83438 | 32.73985 | 17534 ft | 349 kts | 33° |
| 2026-04-29 17:39 | 39.85434 | 32.75718 | 17119 ft | 344 kts | 33° |
| 2026-04-29 17:40 | 39.87411 | 32.77436 | 16623 ft | 342 kts | 33° |
| 2026-04-29 17:40 | 39.89356 | 32.79127 | 16112 ft | 340 kts | 33° |
| 2026-04-29 17:40 | 39.91297 | 32.80817 | 15707 ft | 336 kts | 33° |
| 2026-04-29 17:40 | 39.93247 | 32.82516 | 15241 ft | 335 kts | 34° |
| 2026-04-29 17:41 | 39.95151 | 32.84256 | 14548 ft | 338 kts | 36° |
| 2026-04-29 17:41 | 39.97032 | 32.86095 | 13697 ft | 345 kts | 37° |
| 2026-04-29 17:41 | 39.98908 | 32.87973 | 12839 ft | 342 kts | 37° |
| 2026-04-29 17:41 | 40.00728 | 32.89938 | 12000 ft | 341 kts | 47° |
| 2026-04-29 17:42 | 40.01871 | 32.92557 | 11466 ft | 326 kts | 76° |
| 2026-04-29 17:42 | 40.01866 | 32.95356 | 11295 ft | 301 kts | 107° |
| 2026-04-29 17:42 | 40.00839 | 32.97555 | 11248 ft | 276 kts | 139° |
| 2026-04-29 17:42 | 39.99265 | 32.98989 | 11122 ft | 281 kts | 150° |
| 2026-04-29 17:43 | 39.97589 | 33.00217 | 10867 ft | 268 kts | 152° |
| 2026-04-29 17:43 | 39.95987 | 33.01313 | 10621 ft | 258 kts | 158° |
| 2026-04-29 17:43 | 39.94273 | 33.01593 | 10352 ft | 246 kts | 192° |
| 2026-04-29 17:43 | 39.92704 | 33.00800 | 10014 ft | 240 kts | 207° |
| 2026-04-29 17:44 | 39.91232 | 32.99754 | 9570 ft | 240 kts | 209° |
| 2026-04-29 17:44 | 39.89784 | 32.98671 | 9120 ft | 241 kts | 213° |
| 2026-04-29 17:44 | 39.88480 | 32.97315 | 8665 ft | 241 kts | 221° |
| 2026-04-29 17:44 | 39.87408 | 32.95663 | 8217 ft | 242 kts | 243° |
| 2026-04-29 17:45 | 39.86881 | 32.93626 | 7793 ft | 241 kts | 256° |
| 2026-04-29 17:45 | 39.86841 | 32.91465 | 7331 ft | 243 kts | 286° |
| 2026-04-29 17:45 | 39.87598 | 32.89531 | 6889 ft | 242 kts | 303° |
| 2026-04-29 17:45 | 39.88644 | 32.87890 | 6436 ft | 244 kts | 323° |
| 2026-04-29 17:46 | 39.90110 | 32.86931 | 5976 ft | 244 kts | 339° |
| 2026-04-29 17:46 | 39.91619 | 32.86250 | 5529 ft | 244 kts | 342° |
| 2026-04-29 17:46 | 39.93277 | 32.85907 | 5049 ft | 245 kts | 3° |
| 2026-04-29 17:46 | 39.94952 | 32.86182 | 4577 ft | 244 kts | 10° |
| 2026-04-29 17:47 | 39.96619 | 32.86561 | 4103 ft | 244 kts | 10° |
| 2026-04-29 17:47 | 39.98266 | 32.86946 | 3645 ft | 245 kts | 12° |
| 2026-04-29 17:47 | 39.99849 | 32.87594 | 3675 ft | 226 kts | 22° |
| 2026-04-29 17:47 | 40.01180 | 32.88371 | 4221 ft | 200 kts | 24° |
| 2026-04-29 17:48 | 40.02376 | 32.89070 | 5314 ft | 182 kts | 32° |
| 2026-04-29 17:48 | 40.03211 | 32.90034 | 5969 ft | 159 kts | 52° |
| 2026-04-29 17:48 | 40.03924 | 32.91358 | 5500 ft | 197 kts | 52° |
| 2026-04-29 17:48 | 40.04936 | 32.92551 | 5643 ft | 189 kts | 33° |
| 2026-04-29 17:49 | 40.05988 | 32.93281 | 6134 ft | 156 kts | 26° |
| 2026-04-29 17:49 | 40.06949 | 32.93940 | 5974 ft | 164 kts | 29° |
| 2026-04-29 17:49 | 40.07921 | 32.94741 | 5832 ft | 163 kts | 33° |
| 2026-04-29 17:49 | 40.08908 | 32.95567 | 5220 ft | 182 kts | 35° |
| 2026-04-29 17:50 | 40.09924 | 32.96605 | 4412 ft | 199 kts | 44° |
| 2026-04-29 17:50 | 40.10976 | 32.97852 | 3544 ft | 205 kts | 35° |
| 2026-04-29 17:50 | 40.12066 | 32.98875 | 3266 ft | 172 kts | 36° |
| 2026-04-29 17:50 | 40.12915 | 32.99738 | 3214 ft | 144 kts | 35° |
| 2026-04-29 17:51 | 40.13691 | 33.00426 | 3135 ft | 114 kts | 36° |
| 2026-04-29 17:51 | 40.14041 | 33.00839 | 3138 ft | 48 kts | 34° |
| 2026-04-29 17:51 | 40.14203 | 33.00776 | 3133 ft | 16 kts | 312° |
| 2026-04-29 17:51 | 40.14176 | 33.00652 | 3131 ft | 16 kts | 212° |
| 2026-04-29 17:52 | 40.14078 | 33.00562 | 3131 ft | 18 kts | 216° |
| 2026-04-29 17:52 | 40.13922 | 33.00413 | 3132 ft | 37 kts | 216° |
| 2026-04-29 17:52 | 40.13710 | 33.00215 | 3132 ft | 35 kts | 215° |
| 2026-04-29 17:52 | 40.13510 | 33.00019 | 3126 ft | 37 kts | 216° |
| 2026-04-29 17:53 | 40.13298 | 32.99819 | 3126 ft | 37 kts | 217° |
| 2026-04-29 17:53 | 40.13083 | 32.99625 | 3124 ft | 38 kts | 215° |
| 2026-04-29 17:53 | 40.12865 | 32.99465 | 3124 ft | 32 kts | 196° |
| 2026-04-29 17:53 | 40.12750 | 32.99440 | 3126 ft | 12 kts | 186° |
| 2026-04-29 17:54 | 40.12662 | 32.99432 | 3126 ft | 13 kts | 182° |
| 2026-04-29 17:54 | 40.12598 | 32.99479 | 3129 ft | 10 kts | 103° |
| 2026-04-29 17:54 | 40.12592 | 32.99563 | 3131 ft | 8 kts | 91° |
| 2026-04-29 17:54 | 40.12593 | 32.99638 | 3132 ft | 7 kts | 89° |